Decoded Metar for LEBB (BILBAO in SPAIN) (IATA:BIO) | Meteo·Mobile Aviation Weather
aviador You're here:

LEBB Decoded Metar

BILBAO in SPAIN
Report Time2018-08-21 05:00:00
UTC Time2018-08-21 05:40:50
Flight Rules vfr VFR
Wind110° at 04 kt
W.Decomp.*RWY 12: 4.0 kt HW 0.6 kt LCW
RWY 10: 3.9 kt HW 0.8 kt RCW
W.Rank110° ranks 6
Current wind is below 110° avg. (4.4)
Visibility9999 m
Phenomena:N/A
Clouds:Scattered 026 Hf
Expected CloudBase > 400 ft AGL from Temp-Dew spread
CeilingNone
Temp16°C (ISA +1)
Dew Point15°C (94% RH)
QNH1020 hPa
Density Alt246 ft
Elevation112 ft
Report Wrong Elevation
Raw Report
METAR LEBB 210500Z 11004KT 030V160 9999 SCT026 16/15 Q1020 NOSIG=

Extra information for LEBB:More info

Metar Taf Metar & Taf Last 4 Metars F.Rules Stats Wind Profile Meteogram Temp Stats Airport Information Weather charts Add Link Nearby VenuesMetar ALERT Operation Metar Decoded Social comments